Погода Сребреникна неделю

Биельина, Босния и Герцеговина

15 - 21 июля
  • 15июля
    Сегодня
    +21°
    +35°
    Облачно с прояснениями
    ВремяПогодаТемператураВлажностьДавлениеВетер, м/сВероятность осадков
    02:00Ясно и безоблачно+23°C77 %733 мм1.7 м/с2 %
    05:00Ясно и безоблачно+22°C87 %734 мм1.6 м/с2 %
    08:00Ясно и безоблачно+26°C74 %735 мм0.4 м/с2 %
    11:00Ясно и безоблачно+31°C55 %735 мм0.9 м/с2 %
    14:00Облачно с прояснениями+34°C47 %734 мм1.2 м/с3 %
    17:00Небольшая облачность+34°C45 %734 мм1.2 м/с6 %
    20:00Небольшая облачность+30°C77 %734 мм0.8 м/с9 %
    23:00Ясно и безоблачно+26°C80 %733 мм2.0 м/с2 %
  • 16июля
    Вторник
    +21°
    +37°
    Практически безоблачно
    ВремяПогодаТемператураВлажностьДавлениеВетер, м/сВероятность осадков
    02:00Ясно и безоблачно+24°C83 %733 мм1.7 м/с2 %
    05:00Ясно и безоблачно+22°C85 %732 мм1.6 м/с2 %
    08:00Ясно и безоблачно+26°C75 %733 мм0.4 м/с2 %
    11:00Ясно и безоблачно+33°C44 %733 мм1.0 м/с2 %
    14:00Практически безоблачно+37°C30 %733 мм1.6 м/с6 %
    17:00Практически безоблачно+35°C30 %732 мм1.4 м/с7 %
    20:00Практически безоблачно+30°C52 %733 мм1.2 м/с2 %
    23:00Ясно и безоблачно+25°C61 %733 мм2.0 м/с2 %
  • 17июля
    Среда
    +20°
    +34°
    Небольшая облачность
    ВремяПогодаТемператураВлажностьДавлениеВетер, м/сВероятность осадков
    02:00Ясно и безоблачно+24°C72 %734 мм1.8 м/с2 %
    05:00Ясно и безоблачно+22°C83 %734 мм1.7 м/с2 %
    08:00Ясно и безоблачно+25°C68 %736 мм0.7 м/с2 %
    11:00Ясно и безоблачно+30°C54 %737 мм1.1 м/с2 %
    14:00Небольшая облачность+33°C44 %737 мм1.3 м/с29 %
    17:00Облачно с прояснениями+34°C47 %736 мм1.2 м/с31 %
    20:00Практически безоблачно+29°C65 %736 мм1.2 м/с8 %
    23:00Ясно и безоблачно+24°C77 %737 мм1.8 м/с2 %
  • 18июля
    Четверг
    +19°
    +34°
    Практически безоблачно
    ВремяПогодаТемператураВлажностьДавлениеВетер, м/сВероятность осадков
    02:00Ясно и безоблачно+22°C72 %736 мм1.7 м/с2 %
    05:00Ясно и безоблачно+21°C80 %736 мм1.6 м/с2 %
    08:00Ясно и безоблачно+25°C70 %738 мм0.4 м/с3 %
    11:00Ясно и безоблачно+30°C51 %738 мм0.9 м/с9 %
    14:00Практически безоблачно+33°C39 %737 мм1.4 м/с17 %
    17:00Практически безоблачно+33°C37 %736 мм1.3 м/с27 %
    20:00Небольшая облачность+31°C53 %736 мм1.0 м/с24 %
    23:00Ясно и безоблачно+26°C57 %736 мм2.1 м/с2 %
Мы используем cookies
Соглашаюсь